Terminal Aerodrome Forecast
Issued by NWS

Home | Current Version | Previous Version | Graphics & Text | Print | Product List | Glossary On
Versions: 1 2 3 4 5 6 7 8 9 10 11 12 13 14 15 16 17 18 19 20 21
000
FTUS41 KCLE 140524
TAFFDY
TAF
KFDY 140524Z 1406/1506 08008KT P6SM BKN070 OVC100
     FM141100 07006KT P6SM VCSH OVC050
     FM141800 27004KT P6SM VCSH OVC050
     FM150000 31004KT P6SM SCT050 BKN200=

USA.gov is the U.S. government's official web portal to all federal, state and local government web resources and services.